createdAt,value
2019-04-27T00:01:14.338Z,4.23
2019-04-27T00:04:01.400Z,3.13
2019-04-27T00:06:31.002Z,4.63
2019-04-27T00:09:07.566Z,4.00
2019-04-27T00:11:42.180Z,6.53
2019-04-27T00:14:15.064Z,5.03
2019-04-27T00:16:57.188Z,3.90
2019-04-27T00:19:43.878Z,4.40
2019-04-27T00:22:31.332Z,5.73
2019-04-27T00:25:00.253Z,4.87
2019-04-27T00:27:29.258Z,4.40
2019-04-27T00:29:58.270Z,4.70
2019-04-27T00:32:27.301Z,4.60
2019-04-27T00:34:56.622Z,5.77
2019-04-27T00:37:53.497Z,5.50
2019-04-27T00:40:35.407Z,6.53
2019-04-27T00:43:04.481Z,9.27
2019-04-27T00:45:33.697Z,4.33
2019-04-27T00:48:03.499Z,8.17
2019-04-27T00:50:33.835Z,4.07
2019-04-27T00:53:03.493Z,4.90
2019-04-27T00:55:35.145Z,7.10
2019-04-27T00:58:23.092Z,7.07
2019-04-27T01:01:12.728Z,5.93
2019-04-27T01:03:45.864Z,4.20
2019-04-27T01:06:14.992Z,6.07
2019-04-27T01:08:45.004Z,5.33
2019-04-27T01:11:14.288Z,9.17
2019-04-27T01:13:43.613Z,8.43
2019-04-27T01:16:15.627Z,4.70
2019-04-27T01:18:43.708Z,17.33
2019-04-27T01:21:12.843Z,6.83
2019-04-27T01:23:42.210Z,5.33
2019-04-27T01:26:29.462Z,5.43
2019-04-27T01:29:04.619Z,3.67
2019-04-27T01:31:33.621Z,5.60
2019-04-27T01:34:02.880Z,5.10
2019-04-27T01:36:32.196Z,3.30
2019-04-27T01:39:01.122Z,4.90
2019-04-27T01:41:30.138Z,6.43
2019-04-27T01:43:59.217Z,6.07
2019-04-27T01:46:29.587Z,13.53
2019-04-27T01:48:59.143Z,3.83
2019-04-27T01:51:29.420Z,7.37
2019-04-27T01:53:59.357Z,9.27
2019-04-27T01:56:29.395Z,5.87
2019-04-27T01:58:59.517Z,4.10
2019-04-27T02:01:46.396Z,12.57
2019-04-27T02:04:24.624Z,7.70
2019-04-27T02:06:55.076Z,12.63
2019-04-27T02:09:24.177Z,6.50
2019-04-27T02:11:53.296Z,14.40
2019-04-27T02:14:22.391Z,5.50
2019-04-27T02:16:51.520Z,15.73
2019-04-27T02:19:20.631Z,9.17
2019-04-27T02:21:51.542Z,14.67
2019-04-27T02:24:20.542Z,7.63
2019-04-27T02:26:49.795Z,7.33
2019-04-27T02:29:41.088Z,6.10
2019-04-27T02:32:39.770Z,3.73
2019-04-27T02:35:12.909Z,6.67
2019-04-27T02:37:41.955Z,6.97
2019-04-27T02:40:49.442Z,6.07
2019-04-27T02:43:19.738Z,12.50
2019-04-27T02:45:50.303Z,2.40
2019-04-27T02:48:20.085Z,4.83
2019-04-27T02:50:50.746Z,8.70
2019-04-27T02:53:39.245Z,6.70
2019-04-27T02:56:10.210Z,5.40
2019-04-27T02:58:40.615Z,5.60
2019-04-27T03:01:10.050Z,7.77
2019-04-27T03:03:41.109Z,7.67
2019-04-27T03:06:10.440Z,10.77
2019-04-27T03:08:42.577Z,3.77
2019-04-27T03:11:10.652Z,4.83
2019-04-27T03:13:51.935Z,2.70
2019-04-27T03:16:35.661Z,2.87
2019-04-27T03:19:21.975Z,5.43
2019-04-27T03:22:09.804Z,3.30
2019-04-27T03:25:03.340Z,5.03
2019-04-27T03:27:33.877Z,3.30
2019-04-27T03:30:02.997Z,4.53
2019-04-27T03:32:32.135Z,5.17
2019-04-27T03:35:03.350Z,6.03
2019-04-27T03:37:32.455Z,3.63
2019-04-27T03:40:01.462Z,4.63
2019-04-27T03:42:31.386Z,2.90
2019-04-27T03:45:00.726Z,3.27
2019-04-27T03:47:30.695Z,3.03
2019-04-27T03:50:00.433Z,2.57
2019-04-27T03:52:35.537Z,5.47
2019-04-27T03:55:12.933Z,3.17
2019-04-27T03:58:00.226Z,2.30
2019-04-27T04:00:30.216Z,3.20
2019-04-27T04:03:00.529Z,3.37
2019-04-27T04:05:30.143Z,1.83
2019-04-27T04:08:00.493Z,2.03
2019-04-27T04:10:31.417Z,4.03
2019-04-27T04:13:22.840Z,4.90
2019-04-27T04:16:07.310Z,5.23
2019-04-27T04:18:53.540Z,4.17
2019-04-27T04:21:22.568Z,2.43
2019-04-27T04:23:51.571Z,5.70
2019-04-27T04:26:20.601Z,3.53
2019-04-27T04:28:50.086Z,1.97
2019-04-27T04:31:21.054Z,2.27
2019-04-27T04:33:50.336Z,3.67
2019-04-27T04:36:20.684Z,4.07
2019-04-27T04:38:50.592Z,3.17
2019-04-27T04:41:36.406Z,4.17
2019-04-27T04:44:15.960Z,2.03
2019-04-27T04:47:13.433Z,4.27
2019-04-27T04:49:42.752Z,3.00
2019-04-27T04:52:12.039Z,2.43
2019-04-27T04:54:41.672Z,2.63
2019-04-27T04:57:10.707Z,6.07
2019-04-27T04:59:39.585Z,5.00
2019-04-27T05:02:10.637Z,4.83
2019-04-27T05:04:39.427Z,1.83
2019-04-27T05:07:09.209Z,3.00
2019-04-27T05:09:39.584Z,4.07
2019-04-27T05:12:08.938Z,5.60
2019-04-27T05:14:38.903Z,4.13
2019-04-27T05:17:09.449Z,3.07
2019-04-27T05:19:38.943Z,3.13
2019-04-27T05:22:09.355Z,4.47
2019-04-27T05:24:39.321Z,3.27
2019-04-27T05:27:09.209Z,5.10
2019-04-27T05:29:38.942Z,5.60
2019-04-27T05:32:09.135Z,4.30
2019-04-27T05:34:39.439Z,3.40
2019-04-27T05:37:09.027Z,3.30
2019-04-27T05:39:38.877Z,3.73
2019-04-27T05:42:12.567Z,4.17
2019-04-27T05:45:22.854Z,5.67
2019-04-27T05:48:00.722Z,5.03
2019-04-27T05:50:38.102Z,4.03
2019-04-27T05:53:01.018Z,3.20
2019-04-27T05:55:30.036Z,6.20
2019-04-27T05:57:59.207Z,3.60
2019-04-27T06:00:29.342Z,3.67
2019-04-27T06:02:59.088Z,3.10
2019-04-27T06:05:29.225Z,5.03
2019-04-27T06:07:58.893Z,3.70
2019-04-27T06:10:29.630Z,4.33
2019-04-27T06:12:59.847Z,4.37
2019-04-27T06:15:30.215Z,4.17
2019-04-27T06:17:59.695Z,3.87
2019-04-27T06:20:28.761Z,2.90
2019-04-27T06:22:58.829Z,5.33
2019-04-27T06:25:30.513Z,5.23
2019-04-27T06:27:59.296Z,5.60
2019-04-27T06:30:29.203Z,4.43
2019-04-27T06:32:59.463Z,4.97
2019-04-27T06:35:28.874Z,4.07
2019-04-27T06:37:58.582Z,4.90
2019-04-27T06:40:29.060Z,6.43
2019-04-27T06:42:59.568Z,3.30
2019-04-27T06:45:28.784Z,10.40
2019-04-27T06:47:59.554Z,6.77
2019-04-27T06:50:29.593Z,4.67
2019-04-27T06:52:59.092Z,5.70
2019-04-27T06:55:29.106Z,4.37
2019-04-27T06:57:58.822Z,4.97
2019-04-27T07:00:28.933Z,3.40
2019-04-27T07:02:59.511Z,2.97
2019-04-27T07:05:29.064Z,3.70
2019-04-27T07:07:59.113Z,3.80
2019-04-27T07:10:28.715Z,5.40
2019-04-27T07:12:59.687Z,3.83
2019-04-27T07:15:28.846Z,3.23
2019-04-27T07:17:58.629Z,4.37
2019-04-27T07:20:30.310Z,4.60
2019-04-27T07:22:59.474Z,4.70
2019-04-27T07:25:29.090Z,4.10
2019-04-27T07:27:59.193Z,4.67
2019-04-27T07:30:32.520Z,4.10
2019-04-27T07:33:01.680Z,3.50
2019-04-27T07:35:30.769Z,4.50
2019-04-27T07:37:59.677Z,3.73
2019-04-27T07:40:30.347Z,7.10
2019-04-27T07:43:06.523Z,6.80
2019-04-27T07:45:39.427Z,3.33
2019-04-27T07:48:09.169Z,4.63
2019-04-27T07:50:39.029Z,6.13
2019-04-27T07:53:08.646Z,6.43
2019-04-27T07:55:39.274Z,5.00
2019-04-27T07:58:08.958Z,4.80
2019-04-27T08:00:39.482Z,7.57
2019-04-27T08:03:10.033Z,5.37
2019-04-27T08:05:39.488Z,4.93
2019-04-27T08:08:08.998Z,5.53
2019-04-27T08:10:39.226Z,7.00
2019-04-27T08:13:09.585Z,4.87
2019-04-27T08:15:39.699Z,7.37
2019-04-27T08:18:09.117Z,8.10
2019-04-27T08:20:39.065Z,8.03
2019-04-27T08:23:09.627Z,6.83
2019-04-27T08:25:39.250Z,8.23
2019-04-27T08:28:19.284Z,5.07
2019-04-27T08:31:08.911Z,4.80
2019-04-27T08:33:38.915Z,5.30
2019-04-27T08:36:08.975Z,8.83
2019-04-27T08:38:38.976Z,5.43
2019-04-27T08:41:08.966Z,5.90
2019-04-27T08:43:39.030Z,5.33
2019-04-27T08:46:08.785Z,6.10
2019-04-27T08:48:39.343Z,4.87
2019-04-27T08:51:09.547Z,6.57
2019-04-27T08:53:39.810Z,7.63
2019-04-27T08:56:09.365Z,7.10
2019-04-27T08:58:38.706Z,7.73
2019-04-27T09:01:10.205Z,7.53
2019-04-27T09:03:39.467Z,7.23
2019-04-27T09:06:10.607Z,5.43
2019-04-27T09:08:45.679Z,6.43
2019-04-27T09:11:32.911Z,6.77
2019-04-27T09:14:09.029Z,8.57
2019-04-27T09:16:57.225Z,7.60
2019-04-27T09:19:43.478Z,5.40
2019-04-27T09:22:16.289Z,6.50
2019-04-27T09:24:43.366Z,5.63
2019-04-27T09:27:12.240Z,8.00
2019-04-27T09:29:41.216Z,6.70
2019-04-27T09:32:10.335Z,6.00
2019-04-27T09:34:39.331Z,6.33
2019-04-27T09:37:08.597Z,5.97
2019-04-27T09:39:37.781Z,5.37
2019-04-27T09:42:07.047Z,2.50
2019-04-27T09:44:37.061Z,2.70
2019-04-27T09:47:06.354Z,1.87
2019-04-27T09:49:39.134Z,3.10
2019-04-27T09:52:23.621Z,4.13
2019-04-27T09:54:43.186Z,2.93
2019-04-27T09:57:12.243Z,6.70
2019-04-27T09:59:41.233Z,5.33
2019-04-27T10:02:10.247Z,2.90
2019-04-27T10:04:39.222Z,6.20
2019-04-27T10:07:08.247Z,4.83
2019-04-27T10:09:37.324Z,5.00
2019-04-27T10:12:07.523Z,3.23
2019-04-27T10:14:36.715Z,5.40
2019-04-27T10:17:05.699Z,5.13
2019-04-27T10:19:36.400Z,6.87
2019-04-27T10:22:05.861Z,9.67
2019-04-27T10:24:35.811Z,4.20
2019-04-27T10:27:07.779Z,4.80
2019-04-27T10:29:36.598Z,2.17
2019-04-27T10:32:06.322Z,6.17
2019-04-27T10:34:35.374Z,6.20
2019-04-27T10:37:06.076Z,5.23
2019-04-27T10:39:36.106Z,4.67
2019-04-27T10:42:06.799Z,4.63
2019-04-27T10:44:36.279Z,6.83
2019-04-27T10:47:06.008Z,4.27
2019-04-27T10:49:35.205Z,2.17
2019-04-27T10:52:05.889Z,5.43
2019-04-27T10:54:35.123Z,5.73
2019-04-27T10:57:05.950Z,4.60
2019-04-27T10:59:36.065Z,6.27
2019-04-27T11:02:05.445Z,5.93
2019-04-27T11:04:52.314Z,6.70
2019-04-27T11:07:23.501Z,7.57
2019-04-27T11:09:52.420Z,6.87
2019-04-27T11:12:21.479Z,7.00
2019-04-27T11:14:50.483Z,3.73
2019-04-27T11:17:19.497Z,6.70
2019-04-27T11:19:48.802Z,5.53
2019-04-27T11:22:17.798Z,4.63
2019-04-27T11:24:47.977Z,8.70
2019-04-27T11:27:17.414Z,9.17
2019-04-27T11:29:46.378Z,10.00
2019-04-27T11:32:15.886Z,7.00
2019-04-27T11:35:02.977Z,6.57
2019-04-27T11:37:35.649Z,6.77
2019-04-27T11:40:06.835Z,7.37
2019-04-27T11:42:35.973Z,6.97
2019-04-27T11:45:06.598Z,10.57
2019-04-27T11:47:36.542Z,6.90
2019-04-27T11:50:06.350Z,8.47
2019-04-27T11:52:36.851Z,8.73
2019-04-27T11:55:07.233Z,8.03
2019-04-27T11:57:37.630Z,7.07
2019-04-27T12:00:11.917Z,4.87
2019-04-27T12:02:46.536Z,5.30
2019-04-27T12:05:16.347Z,7.13
2019-04-27T12:07:47.542Z,3.80
2019-04-27T12:10:16.355Z,5.90
2019-04-27T12:12:46.320Z,3.83
2019-04-27T12:15:16.581Z,5.50
2019-04-27T12:17:46.174Z,4.17
2019-04-27T12:20:17.872Z,5.60
2019-04-27T12:22:46.521Z,5.00
2019-04-27T12:25:17.049Z,4.17
2019-04-27T12:28:11.152Z,5.90
2019-04-27T12:30:53.555Z,3.87
2019-04-27T12:33:23.082Z,3.97
2019-04-27T12:35:52.240Z,3.10
2019-04-27T12:38:21.262Z,5.30
2019-04-27T12:40:50.335Z,3.10
2019-04-27T12:43:19.412Z,3.13
2019-04-27T12:45:48.548Z,5.40
2019-04-27T12:48:17.574Z,2.40
2019-04-27T12:50:46.559Z,3.23
2019-04-27T12:53:23.153Z,3.17
2019-04-27T12:56:02.366Z,2.13
2019-04-27T12:58:39.988Z,2.20
2019-04-27T13:01:11.712Z,2.73
2019-04-27T13:03:41.047Z,2.27
2019-04-27T13:06:10.144Z,1.37
2019-04-27T13:08:39.264Z,3.97
2019-04-27T13:11:08.773Z,2.97
2019-04-27T13:13:37.770Z,2.80
2019-04-27T13:16:07.109Z,2.87
2019-04-27T13:18:36.290Z,2.27
2019-04-27T13:21:05.234Z,4.67
2019-04-27T13:23:34.284Z,4.37
2019-04-27T13:26:03.320Z,2.43
2019-04-27T13:28:32.959Z,4.30
2019-04-27T13:31:01.890Z,1.97
2019-04-27T13:33:30.841Z,6.33
2019-04-27T13:35:59.911Z,4.73
2019-04-27T13:38:28.881Z,5.53
2019-04-27T13:41:11.910Z,4.53
2019-04-27T13:43:41.001Z,3.97
2019-04-27T13:46:20.418Z,4.70
2019-04-27T13:49:07.293Z,4.53
2019-04-27T13:52:10.907Z,5.63
2019-04-27T13:54:39.981Z,6.17
2019-04-27T13:57:09.010Z,6.23
2019-04-27T13:59:38.182Z,7.03
2019-04-27T14:02:07.258Z,5.10
2019-04-27T14:04:36.203Z,6.63
2019-04-27T14:07:05.463Z,8.23
2019-04-27T14:09:34.586Z,6.00
2019-04-27T14:12:22.094Z,3.37
2019-04-27T14:14:51.193Z,6.27
2019-04-27T14:17:20.364Z,4.47
2019-04-27T14:19:49.769Z,4.40
2019-04-27T14:22:18.901Z,6.27
2019-04-27T14:24:48.704Z,2.90
2019-04-27T14:27:19.050Z,2.67
2019-04-27T14:29:48.949Z,3.73
2019-04-27T14:32:20.798Z,3.63
2019-04-27T14:34:50.410Z,6.03
2019-04-27T14:37:19.576Z,10.13
2019-04-27T14:39:48.748Z,4.10
2019-04-27T14:42:19.195Z,6.00
2019-04-27T14:44:49.052Z,3.07
2019-04-27T14:47:18.925Z,4.37
2019-04-27T14:49:49.048Z,4.17
2019-04-27T14:52:18.797Z,4.23
2019-04-27T14:54:50.700Z,5.67
2019-04-27T14:57:20.387Z,4.70
2019-04-27T14:59:50.047Z,4.53
2019-04-27T15:02:19.203Z,4.37
2019-04-27T15:04:48.419Z,6.67
2019-04-27T15:07:17.682Z,5.20
2019-04-27T15:09:49.800Z,5.87
2019-04-27T15:12:17.489Z,5.43
2019-04-27T15:14:47.216Z,3.97
2019-04-27T15:17:17.599Z,3.47
2019-04-27T15:19:54.026Z,3.83
2019-04-27T15:22:27.638Z,6.27
2019-04-27T15:25:09.200Z,10.40
2019-04-27T15:27:37.542Z,8.00
2019-04-27T15:30:11.553Z,6.50
2019-04-27T15:33:02.370Z,7.23
2019-04-27T15:35:40.664Z,11.00
2019-04-27T15:38:13.977Z,12.17
2019-04-27T15:41:02.375Z,13.30
2019-04-27T15:43:34.180Z,5.03
2019-04-27T15:46:09.777Z,6.20
2019-04-27T15:48:38.937Z,7.57
2019-04-27T15:51:14.629Z,4.10
2019-04-27T15:53:41.613Z,8.47
2019-04-27T15:56:09.554Z,4.47
2019-04-27T15:58:38.858Z,6.20
2019-04-27T16:01:11.593Z,3.20
2019-04-27T16:03:40.254Z,6.07
2019-04-27T16:06:11.928Z,4.73
2019-04-27T16:08:45.243Z,5.23
2019-04-27T16:11:16.377Z,5.77
2019-04-27T16:13:42.090Z,6.63
2019-04-27T16:16:11.206Z,8.10
2019-04-27T16:18:40.345Z,8.20
2019-04-27T16:21:11.072Z,10.00
2019-04-27T16:23:43.166Z,8.10
2019-04-27T16:26:15.040Z,3.70
2019-04-27T16:28:49.731Z,6.57
2019-04-27T16:31:14.376Z,3.27
2019-04-27T16:33:43.616Z,3.93
2019-04-27T16:36:12.786Z,4.23
2019-04-27T16:38:53.708Z,7.70
2019-04-27T16:41:22.959Z,3.37
2019-04-27T16:43:52.108Z,5.83
2019-04-27T16:46:21.570Z,4.47
2019-04-27T16:48:50.781Z,8.67
2019-04-27T16:51:19.945Z,8.80
2019-04-27T16:53:49.260Z,5.40
2019-04-27T16:56:20.623Z,5.33
2019-04-27T16:58:56.585Z,7.30
2019-04-27T17:01:30.298Z,7.43
2019-04-27T17:04:02.209Z,8.93
2019-04-27T17:06:31.116Z,8.10
2019-04-27T17:09:05.589Z,4.60
2019-04-27T17:11:31.066Z,7.17
2019-04-27T17:14:29.167Z,5.43
2019-04-27T17:17:21.545Z,6.07
2019-04-27T17:19:53.538Z,8.23
2019-04-27T17:22:22.589Z,6.50
2019-04-27T17:24:51.636Z,3.80
2019-04-27T17:27:29.318Z,4.97
2019-04-27T17:30:01.228Z,4.77
2019-04-27T17:32:44.322Z,5.43
2019-04-27T17:35:15.051Z,6.67
2019-04-27T17:37:44.430Z,7.20
2019-04-27T17:40:15.550Z,7.97
2019-04-27T17:42:44.633Z,4.07
2019-04-27T17:45:14.233Z,9.43
2019-04-27T17:47:43.141Z,5.43
2019-04-27T17:50:12.600Z,5.17
2019-04-27T17:52:41.687Z,5.50
2019-04-27T17:55:17.798Z,3.93
2019-04-27T17:57:44.674Z,6.90
2019-04-27T18:00:13.969Z,7.97
2019-04-27T18:02:43.002Z,5.17
2019-04-27T18:05:13.794Z,9.53
2019-04-27T18:07:44.412Z,10.17
2019-04-27T18:10:22.810Z,12.70
2019-04-27T18:12:48.143Z,8.70
2019-04-27T18:15:16.112Z,11.23
2019-04-27T18:17:51.425Z,9.43
2019-04-27T18:20:21.068Z,6.43
2019-04-27T18:22:54.159Z,7.27
2019-04-27T18:25:23.053Z,6.80
2019-04-27T18:28:20.292Z,9.97
2019-04-27T18:31:06.244Z,7.83
2019-04-27T18:33:37.169Z,9.07
2019-04-27T18:36:11.552Z,8.63
2019-04-27T18:38:37.385Z,3.60
2019-04-27T18:41:11.550Z,12.27
2019-04-27T18:43:46.508Z,4.90
2019-04-27T18:46:10.732Z,6.27
2019-04-27T18:49:01.987Z,7.00
2019-04-27T18:51:40.450Z,6.57
2019-04-27T18:54:09.388Z,8.23
2019-04-27T18:56:41.541Z,10.37
2019-04-27T18:59:09.441Z,4.80
2019-04-27T19:01:38.289Z,7.17
2019-04-27T19:04:08.698Z,6.30
2019-04-27T19:06:39.153Z,9.87
2019-04-27T19:09:08.550Z,7.50
2019-04-27T19:11:38.232Z,6.60
2019-04-27T19:14:08.287Z,10.93
2019-04-27T19:16:38.393Z,8.70
2019-04-27T19:19:08.664Z,8.57
2019-04-27T19:21:39.223Z,5.53
2019-04-27T19:24:08.985Z,11.10
2019-04-27T19:26:48.307Z,9.13
2019-04-27T19:29:21.273Z,8.20
2019-04-27T19:31:55.899Z,9.50
2019-04-27T19:34:24.783Z,16.70
2019-04-27T19:36:53.717Z,22.00
2019-04-27T19:39:22.835Z,7.73
2019-04-27T19:42:00.449Z,9.17
2019-04-27T19:44:22.431Z,10.87
2019-04-27T19:46:51.573Z,33.17
2019-04-27T19:49:20.561Z,10.53
2019-04-27T19:51:49.772Z,8.23
2019-04-27T19:54:18.779Z,11.40
2019-04-27T19:56:49.905Z,12.27
2019-04-27T19:59:23.448Z,9.77
2019-04-27T20:01:54.487Z,12.87
2019-04-27T20:04:27.413Z,8.63
2019-04-27T20:06:56.455Z,8.37
2019-04-27T20:09:41.122Z,9.83
2019-04-27T20:12:10.517Z,7.77
2019-04-27T20:14:57.918Z,12.43
2019-04-27T20:17:28.370Z,8.30
2019-04-27T20:19:57.579Z,10.63
2019-04-27T20:22:26.530Z,12.93
2019-04-27T20:24:55.654Z,10.10
2019-04-27T20:27:24.622Z,21.70
2019-04-27T20:29:53.651Z,10.63
2019-04-27T20:32:22.633Z,9.87
2019-04-27T20:34:51.616Z,12.77
2019-04-27T20:37:21.105Z,12.53
2019-04-27T20:39:51.432Z,11.87
2019-04-27T20:42:21.150Z,12.23
2019-04-27T20:44:51.587Z,11.67
2019-04-27T20:47:20.979Z,13.87
2019-04-27T20:49:50.028Z,10.00
2019-04-27T20:52:31.593Z,9.07
2019-04-27T20:55:01.503Z,9.73
2019-04-27T20:57:31.735Z,12.30
2019-04-27T21:00:02.045Z,11.17
2019-04-27T21:02:37.280Z,7.80
2019-04-27T21:05:28.486Z,12.47
2019-04-27T21:08:01.413Z,13.67
2019-04-27T21:10:30.787Z,9.27
2019-04-27T21:13:01.738Z,13.83
2019-04-27T21:15:31.493Z,17.00
2019-04-27T21:18:01.253Z,18.70
2019-04-27T21:20:41.030Z,13.17
2019-04-27T21:23:11.913Z,11.17
2019-04-27T21:25:42.034Z,12.20
2019-04-27T21:28:17.966Z,10.23
2019-04-27T21:30:42.096Z,10.30
2019-04-27T21:33:11.652Z,10.40
2019-04-27T21:35:40.693Z,13.03
2019-04-27T21:38:11.560Z,12.33
2019-04-27T21:40:40.957Z,8.97
2019-04-27T21:43:11.317Z,14.13
2019-04-27T21:45:42.032Z,9.07
2019-04-27T21:48:11.216Z,12.03
2019-04-27T21:50:41.341Z,13.57
2019-04-27T21:53:27.074Z,16.07
2019-04-27T21:56:01.582Z,11.20
2019-04-27T21:58:31.331Z,13.13
2019-04-27T22:01:22.350Z,16.47
2019-04-27T22:03:52.755Z,12.53
2019-04-27T22:06:22.152Z,10.03
2019-04-27T22:08:51.443Z,20.97
2019-04-27T22:11:21.876Z,12.03
2019-04-27T22:13:51.364Z,19.67
2019-04-27T22:16:21.334Z,19.00
2019-04-27T22:18:51.911Z,13.53
2019-04-27T22:21:21.790Z,19.60
2019-04-27T22:24:10.681Z,33.63
2019-04-27T22:26:41.498Z,19.27
2019-04-27T22:29:12.068Z,11.67
2019-04-27T22:31:41.607Z,19.47
2019-04-27T22:34:10.955Z,17.07
2019-04-27T22:36:39.942Z,20.43
2019-04-27T22:39:34.005Z,15.33
2019-04-27T22:42:23.105Z,15.03
2019-04-27T22:44:54.907Z,13.97
2019-04-27T22:47:26.993Z,14.73
2019-04-27T22:49:55.961Z,12.60
2019-04-27T22:52:24.917Z,12.47
2019-04-27T22:54:53.792Z,12.23
2019-04-27T22:57:31.550Z,17.27
2019-04-27T23:00:11.266Z,15.37
2019-04-27T23:02:52.926Z,10.80
2019-04-27T23:05:21.768Z,10.57
2019-04-27T23:07:51.715Z,11.97
2019-04-27T23:10:21.397Z,8.70
2019-04-27T23:12:51.032Z,13.10
2019-04-27T23:15:22.769Z,17.87
2019-04-27T23:17:55.718Z,11.83
2019-04-27T23:20:24.919Z,12.97
2019-04-27T23:22:54.297Z,14.50
2019-04-27T23:25:23.294Z,13.00
2019-04-27T23:27:59.524Z,16.10
2019-04-27T23:30:41.818Z,17.23
2019-04-27T23:33:11.213Z,26.07
2019-04-27T23:35:41.399Z,13.50
2019-04-27T23:38:17.601Z,17.93
2019-04-27T23:40:41.873Z,11.73
2019-04-27T23:43:12.155Z,15.87
2019-04-27T23:45:41.931Z,15.40
2019-04-27T23:48:12.402Z,14.63
2019-04-27T23:50:44.199Z,13.93
2019-04-27T23:53:17.172Z,10.97
2019-04-27T23:55:46.473Z,12.63
2019-04-27T23:58:15.780Z,14.60
